Igor I Sikorsky Memorial Airport Bridgeport US
ICAO: KBDR
IATA: BDR
Category: Medium
Scheduled Services: Yes

Elevation: 9 ft
TransAlt. 18000 ft.

Airport Communications:
NEW YORK APP/DEP:124.075
ATIS:119.15
CLNC DEL:121.75
CTAF:120.9
GND:121.9
BRIDGEPORT RDO:108.8
BRIDGEPORT TWR:120.9
UNICOM:123

KBDR Zoom In..

Runways:

(A) RW 06 length 4677 ft width 150 ft
ILS 110.70 / hdg 58

(B) RW 11 length 4761 ft width 150 ft
---- / hdg 111

(C) RW 24 length 4677 ft width 150 ft
---- / hdg 238

(D) RW 29 length 4761 ft width 150 ft
---- / hdg 291

Location; KBDR
Day. 19 / Time. 20.52 Zulu
* Altimeter: 29.77
* Temperature: 07° c. 44.6°f.
* Wind from: 330° Speed 07 kn.
Dewpoint: 03° c.
Visibility: 10 Statute Miles.
Clouds: Broken 2000 ft.
Clouds: Overcast 2900 ft.

KBDR 192052Z 33007KT 10SM BKN020 OVC029 07/03 A2977 RMK AO2 RAE33 SLP079 P0000 60005 T00670028 51014


Wind From 330°
Speed 07 kn.

  YouTube Music Video
 
jpsmedia.com for Web Design  worldairports.se 2018   terms of use